createdAt,value
2023-04-27T00:01:15.191Z,3.47
2023-04-27T00:03:42.466Z,2.83
2023-04-27T00:06:09.817Z,4.38
2023-04-27T00:08:37.020Z,2.83
2023-04-27T00:11:04.092Z,3.10
2023-04-27T00:13:30.838Z,3.40
2023-04-27T00:15:57.543Z,2.80
2023-04-27T00:18:24.216Z,2.67
2023-04-27T00:20:50.996Z,2.97
2023-04-27T00:23:17.728Z,3.13
2023-04-27T00:25:44.351Z,3.10
2023-04-27T00:28:10.974Z,2.60
2023-04-27T00:30:37.691Z,3.25
2023-04-27T00:33:04.389Z,3.10
2023-04-27T00:35:35.175Z,2.83
2023-04-27T00:38:01.861Z,2.80
2023-04-27T00:40:28.531Z,2.83
2023-04-27T00:42:55.502Z,2.88
2023-04-27T00:45:22.191Z,3.30
2023-04-27T00:47:49.840Z,2.72
2023-04-27T00:50:17.092Z,2.88
2023-04-27T00:52:44.209Z,3.03
2023-04-27T00:55:11.061Z,3.03
2023-04-27T00:57:38.993Z,2.95
2023-04-27T01:00:07.178Z,3.33
2023-04-27T01:02:35.095Z,4.05
2023-04-27T01:05:03.066Z,3.30
2023-04-27T01:07:29.788Z,2.85
2023-04-27T01:09:56.648Z,3.80
2023-04-27T01:12:23.387Z,3.42
2023-04-27T01:14:50.044Z,3.08
2023-04-27T01:17:18.186Z,3.47
2023-04-27T01:19:45.046Z,2.85
2023-04-27T01:22:11.788Z,3.35
2023-04-27T01:24:38.413Z,3.65
2023-04-27T01:27:05.151Z,3.13
2023-04-27T01:29:31.850Z,3.80
2023-04-27T01:31:58.457Z,3.25
2023-04-27T01:34:25.132Z,3.00
2023-04-27T01:36:51.796Z,3.20
2023-04-27T01:39:18.462Z,2.72
2023-04-27T01:41:45.091Z,3.17
2023-04-27T01:44:12.073Z,3.05
2023-04-27T01:46:38.750Z,2.75
2023-04-27T01:49:05.850Z,2.85
2023-04-27T01:51:32.897Z,3.15
2023-04-27T01:53:59.617Z,3.20
2023-04-27T01:56:26.242Z,2.70
2023-04-27T01:58:53.508Z,3.00
2023-04-27T02:01:20.779Z,3.40
2023-04-27T02:03:47.613Z,3.15
2023-04-27T02:06:14.562Z,2.97
2023-04-27T02:08:41.492Z,2.70
2023-04-27T02:11:08.187Z,3.40
2023-04-27T02:13:34.968Z,3.30
2023-04-27T02:16:04.402Z,3.15
2023-04-27T02:18:32.543Z,3.05
2023-04-27T02:20:59.312Z,2.90
2023-04-27T02:23:26.180Z,4.43
2023-04-27T02:25:52.840Z,3.28
2023-04-27T02:28:19.544Z,2.92
2023-04-27T02:30:47.271Z,3.00
2023-04-27T02:33:13.920Z,3.95
2023-04-27T02:35:41.797Z,2.90
2023-04-27T02:38:08.523Z,2.90
2023-04-27T02:40:35.143Z,3.63
2023-04-27T02:43:01.783Z,3.28
2023-04-27T02:45:29.694Z,3.45
2023-04-27T02:47:56.650Z,3.20
2023-04-27T02:50:23.472Z,3.25
2023-04-27T02:52:50.081Z,3.05
2023-04-27T02:55:17.249Z,3.20
2023-04-27T02:57:44.187Z,3.17
2023-04-27T03:00:11.835Z,3.20
2023-04-27T03:02:38.774Z,3.10
2023-04-27T03:05:05.926Z,2.88
2023-04-27T03:07:32.611Z,3.10
2023-04-27T03:09:59.331Z,3.33
2023-04-27T03:12:26.078Z,2.50
2023-04-27T03:14:52.788Z,3.30
2023-04-27T03:17:19.408Z,3.10
2023-04-27T03:19:48.494Z,4.00
2023-04-27T03:22:15.516Z,3.17
2023-04-27T03:24:42.888Z,3.20
2023-04-27T03:27:09.589Z,2.80
2023-04-27T03:29:36.235Z,3.70
2023-04-27T03:32:07.164Z,3.47
2023-04-27T03:34:33.861Z,3.10
2023-04-27T03:37:00.667Z,3.35
2023-04-27T03:39:27.733Z,3.28
2023-04-27T03:41:54.433Z,3.00
2023-04-27T03:44:21.268Z,3.25
2023-04-27T03:46:47.947Z,2.65
2023-04-27T03:49:14.830Z,3.30
2023-04-27T03:51:42.368Z,2.83
2023-04-27T03:54:10.084Z,2.70
2023-04-27T03:56:37.048Z,3.88
2023-04-27T03:59:04.803Z,3.30
2023-04-27T04:01:31.886Z,2.38
2023-04-27T04:03:58.778Z,2.80
2023-04-27T04:06:26.121Z,3.10
2023-04-27T04:08:52.783Z,2.70
2023-04-27T04:11:19.407Z,3.00
2023-04-27T04:13:46.172Z,3.05
2023-04-27T04:16:13.782Z,2.38
2023-04-27T04:18:40.589Z,2.50
2023-04-27T04:21:08.893Z,2.72
2023-04-27T04:23:35.827Z,2.92
2023-04-27T04:26:02.555Z,3.15
2023-04-27T04:28:29.299Z,3.28
2023-04-27T04:30:56.755Z,3.33
2023-04-27T04:33:24.213Z,3.03
2023-04-27T04:35:51.732Z,2.95
2023-04-27T04:38:18.384Z,3.10
2023-04-27T04:40:46.066Z,3.15
2023-04-27T04:43:13.306Z,3.95
2023-04-27T04:45:40.065Z,3.20
2023-04-27T04:48:06.711Z,2.88
2023-04-27T04:50:33.663Z,3.13
2023-04-27T04:53:00.277Z,3.42
2023-04-27T04:55:28.310Z,3.47
2023-04-27T04:57:55.095Z,3.10
2023-04-27T05:00:22.571Z,3.25
2023-04-27T05:02:49.535Z,2.70
2023-04-27T05:05:16.707Z,2.75
2023-04-27T05:07:43.321Z,2.90
2023-04-27T05:10:10.104Z,2.42
2023-04-27T05:12:36.800Z,2.88
2023-04-27T05:15:04.064Z,2.67
2023-04-27T05:17:31.192Z,3.28
2023-04-27T05:19:58.330Z,2.58
2023-04-27T05:22:25.045Z,2.60
2023-04-27T05:24:51.990Z,3.47
2023-04-27T05:27:18.660Z,3.10
2023-04-27T05:29:45.369Z,2.90
2023-04-27T05:32:12.029Z,2.40
2023-04-27T05:34:38.653Z,3.13
2023-04-27T05:37:05.413Z,2.95
2023-04-27T05:39:32.412Z,3.10
2023-04-27T05:41:59.035Z,3.20
2023-04-27T05:44:28.561Z,2.88
2023-04-27T05:46:56.327Z,2.90
2023-04-27T05:49:23.548Z,3.10
2023-04-27T05:51:50.447Z,2.65
2023-04-27T05:54:17.085Z,3.45
2023-04-27T05:56:44.534Z,3.13
2023-04-27T05:59:11.593Z,2.90
2023-04-27T06:01:38.949Z,3.15
2023-04-27T06:04:05.665Z,2.65
2023-04-27T06:06:33.237Z,3.13
2023-04-27T06:08:59.976Z,2.70
2023-04-27T06:11:26.920Z,2.70
2023-04-27T06:13:53.608Z,2.72
2023-04-27T06:16:21.301Z,3.17
2023-04-27T06:18:50.772Z,4.82
2023-04-27T06:21:18.028Z,2.55
2023-04-27T06:23:44.816Z,2.70
2023-04-27T06:26:11.614Z,2.47
2023-04-27T06:28:38.353Z,3.10
2023-04-27T06:31:05.332Z,2.90
2023-04-27T06:33:32.105Z,2.65
2023-04-27T06:35:58.729Z,3.22
2023-04-27T06:38:25.367Z,2.55
2023-04-27T06:40:53.114Z,2.45
2023-04-27T06:43:19.873Z,2.60
2023-04-27T06:45:46.566Z,2.97
2023-04-27T06:48:13.265Z,2.72
2023-04-27T06:50:40.509Z,2.90
2023-04-27T06:53:07.288Z,2.65
2023-04-27T06:55:34.155Z,3.13
2023-04-27T06:58:00.843Z,2.53
2023-04-27T07:00:27.634Z,3.05
2023-04-27T07:02:54.478Z,2.60
2023-04-27T07:05:21.174Z,3.10
2023-04-27T07:07:47.897Z,2.90
2023-04-27T07:10:14.507Z,3.13
2023-04-27T07:12:42.439Z,3.22
2023-04-27T07:15:09.759Z,2.70
2023-04-27T07:17:36.451Z,3.42
2023-04-27T07:20:05.320Z,3.22
2023-04-27T07:22:33.163Z,3.75
2023-04-27T07:24:59.791Z,3.20
2023-04-27T07:27:26.684Z,2.95
2023-04-27T07:29:53.427Z,3.15
2023-04-27T07:32:20.216Z,2.65
2023-04-27T07:34:53.429Z,3.10
2023-04-27T07:37:21.292Z,2.40
2023-04-27T07:39:50.153Z,3.05
2023-04-27T07:42:16.864Z,3.00
2023-04-27T07:44:43.660Z,3.38
2023-04-27T07:47:10.631Z,3.05
2023-04-27T07:49:38.369Z,3.65
2023-04-27T07:52:05.395Z,3.20
2023-04-27T07:54:32.158Z,3.22
2023-04-27T07:56:58.812Z,3.63
2023-04-27T07:59:28.514Z,3.20
2023-04-27T08:04:37.981Z,3.40
2023-04-27T08:07:05.278Z,3.92
2023-04-27T08:09:32.606Z,3.45
2023-04-27T08:11:59.306Z,3.35
2023-04-27T08:14:26.264Z,2.60
2023-04-27T08:16:53.034Z,3.85
2023-04-27T08:19:19.747Z,3.55
2023-04-27T08:21:46.593Z,3.38
2023-04-27T08:24:13.322Z,3.85
2023-04-27T08:26:41.403Z,3.53
2023-04-27T08:29:19.513Z,3.30
2023-04-27T08:31:50.850Z,3.90
2023-04-27T08:34:18.189Z,3.50
2023-04-27T08:36:44.829Z,4.35
2023-04-27T08:39:11.817Z,3.78
2023-04-27T08:41:43.557Z,3.60
2023-04-27T08:44:10.628Z,3.83
2023-04-27T08:46:38.051Z,3.95
2023-04-27T08:49:05.613Z,3.83
2023-04-27T08:51:32.949Z,3.80
2023-04-27T08:53:59.832Z,3.15
2023-04-27T08:56:29.191Z,3.50
2023-04-27T08:58:56.941Z,3.78
2023-04-27T09:01:25.090Z,3.10
2023-04-27T09:04:00.224Z,3.28
2023-04-27T09:06:32.614Z,3.53
2023-04-27T09:09:00.424Z,3.55
2023-04-27T09:11:38.094Z,3.40
2023-04-27T09:14:22.387Z,4.78
2023-04-27T09:16:57.679Z,4.32
2023-04-27T09:19:26.768Z,4.13
2023-04-27T09:22:09.612Z,3.75
2023-04-27T09:24:37.072Z,4.00
2023-04-27T09:27:05.057Z,4.30
2023-04-27T09:29:36.628Z,3.60
2023-04-27T09:32:21.113Z,3.85
2023-04-27T09:34:48.188Z,3.78
2023-04-27T09:37:15.535Z,3.75
2023-04-27T09:39:42.866Z,3.83
2023-04-27T09:42:10.972Z,3.97
2023-04-27T09:44:37.558Z,4.15
2023-04-27T09:47:05.463Z,4.75
2023-04-27T09:49:35.031Z,3.90
2023-04-27T09:54:32.284Z,4.88
2023-04-27T09:57:17.917Z,4.55
2023-04-27T10:00:08.027Z,3.38
2023-04-27T10:03:02.136Z,3.65
2023-04-27T10:05:38.486Z,4.43
2023-04-27T10:08:06.175Z,4.20
2023-04-27T10:10:42.716Z,4.00
2023-04-27T10:13:19.945Z,4.00
2023-04-27T10:15:46.577Z,3.97
2023-04-27T10:18:13.249Z,4.60
2023-04-27T10:20:40.834Z,4.90
2023-04-27T10:23:07.734Z,4.45
2023-04-27T10:25:42.035Z,4.70
2023-04-27T10:28:15.170Z,4.50
2023-04-27T10:30:46.393Z,4.38
2023-04-27T10:33:17.588Z,4.20
2023-04-27T10:35:53.982Z,4.80
2023-04-27T10:38:23.471Z,4.45
2023-04-27T10:43:28.553Z,4.75
2023-04-27T10:46:06.934Z,4.25
2023-04-27T10:48:33.701Z,4.55
2023-04-27T10:51:02.376Z,4.75
2023-04-27T10:53:35.680Z,4.80
2023-04-27T10:56:02.822Z,4.93
2023-04-27T10:58:37.713Z,4.53
2023-04-27T11:01:12.576Z,4.68
2023-04-27T11:03:39.478Z,4.32
2023-04-27T11:06:06.650Z,4.00
2023-04-27T11:08:36.611Z,5.13
2023-04-27T11:11:03.806Z,4.45
2023-04-27T11:13:31.006Z,4.43
2023-04-27T11:15:59.703Z,4.03
2023-04-27T11:18:29.901Z,4.40
2023-04-27T11:21:14.259Z,4.35
2023-04-27T11:23:42.289Z,4.70
2023-04-27T11:26:16.914Z,3.90
2023-04-27T11:29:14.131Z,3.80
2023-04-27T11:31:48.969Z,4.93
2023-04-27T11:34:19.319Z,4.10
2023-04-27T11:39:36.315Z,4.13
2023-04-27T11:42:16.640Z,3.60
2023-04-27T11:44:43.511Z,3.65
2023-04-27T11:47:19.103Z,4.05
2023-04-27T11:49:49.801Z,3.67
2023-04-27T11:52:16.926Z,4.68
2023-04-27T11:54:50.948Z,3.70
2023-04-27T11:57:17.696Z,4.20
2023-04-27T11:59:44.333Z,3.63
2023-04-27T12:02:11.124Z,4.22
2023-04-27T12:04:38.014Z,3.47
2023-04-27T12:07:04.944Z,4.47
2023-04-27T12:09:31.602Z,4.55
2023-04-27T12:11:58.297Z,4.22
2023-04-27T12:14:24.990Z,4.03
2023-04-27T12:16:52.050Z,4.45
2023-04-27T12:19:18.757Z,4.03
2023-04-27T12:21:45.527Z,4.47
2023-04-27T12:24:12.924Z,3.45
2023-04-27T12:26:39.861Z,3.05
2023-04-27T12:29:07.208Z,3.50
2023-04-27T12:31:33.985Z,2.95
2023-04-27T12:34:01.172Z,3.80
2023-04-27T12:36:28.642Z,3.40
2023-04-27T12:39:00.469Z,3.47
2023-04-27T12:41:27.212Z,3.85
2023-04-27T12:43:53.790Z,3.45
2023-04-27T12:46:20.610Z,3.55
2023-04-27T12:48:47.368Z,3.92
2023-04-27T12:51:14.424Z,3.47
2023-04-27T12:53:41.326Z,4.72
2023-04-27T12:56:08.168Z,3.72
2023-04-27T12:58:35.014Z,3.45
2023-04-27T13:01:01.850Z,4.05
2023-04-27T13:03:28.617Z,3.63
2023-04-27T13:05:55.429Z,3.67
2023-04-27T13:08:22.172Z,3.80
2023-04-27T13:10:48.937Z,3.95
2023-04-27T13:13:15.721Z,4.78
2023-04-27T13:15:42.407Z,3.58
2023-04-27T13:18:09.139Z,3.58
2023-04-27T13:20:36.388Z,5.13
2023-04-27T13:23:04.765Z,4.05
2023-04-27T13:25:31.402Z,5.07
2023-04-27T13:27:58.141Z,3.63
2023-04-27T13:30:24.988Z,4.35
2023-04-27T13:32:53.199Z,5.05
2023-04-27T13:35:20.930Z,4.50
2023-04-27T13:37:48.128Z,4.57
2023-04-27T13:40:14.953Z,4.85
2023-04-27T13:42:41.756Z,4.53
2023-04-27T13:45:08.899Z,3.55
2023-04-27T13:47:38.343Z,4.28
2023-04-27T13:50:09.745Z,3.90
2023-04-27T13:52:37.742Z,4.75
2023-04-27T13:55:05.314Z,5.07
2023-04-27T13:57:31.980Z,3.85
2023-04-27T14:00:01.825Z,3.97
2023-04-27T14:02:29.491Z,5.43
2023-04-27T14:04:56.636Z,4.72
2023-04-27T14:07:23.608Z,4.13
2023-04-27T14:09:50.669Z,4.72
2023-04-27T14:12:17.848Z,4.82
2023-04-27T14:14:44.539Z,4.80
2023-04-27T14:17:11.288Z,5.22
2023-04-27T14:19:37.841Z,4.43
2023-04-27T14:22:09.420Z,4.40
2023-04-27T14:24:36.133Z,4.03
2023-04-27T14:27:02.852Z,3.63
2023-04-27T14:29:29.470Z,4.35
2023-04-27T14:31:56.191Z,4.22
2023-04-27T14:34:22.862Z,5.38
2023-04-27T14:36:49.501Z,4.70
2023-04-27T14:39:16.611Z,3.60
2023-04-27T14:41:43.352Z,3.85
2023-04-27T14:44:10.066Z,4.97
2023-04-27T14:46:37.450Z,4.13
2023-04-27T14:49:04.254Z,4.70
2023-04-27T14:51:32.686Z,5.10
2023-04-27T14:53:59.389Z,3.92
2023-04-27T14:56:26.124Z,4.32
2023-04-27T14:58:52.795Z,4.10
2023-04-27T15:01:19.548Z,3.67
2023-04-27T15:03:46.263Z,3.65
2023-04-27T15:06:13.912Z,4.70
2023-04-27T15:08:40.516Z,4.05
2023-04-27T15:11:07.148Z,3.80
2023-04-27T15:13:33.746Z,3.58
2023-04-27T15:16:04.870Z,3.90
2023-04-27T15:18:31.985Z,3.80
2023-04-27T15:20:59.725Z,4.18
2023-04-27T15:23:27.558Z,4.07
2023-04-27T15:25:56.026Z,4.43
2023-04-27T15:28:22.743Z,4.30
2023-04-27T15:30:49.433Z,4.05
2023-04-27T15:33:17.096Z,4.25
2023-04-27T15:35:43.791Z,4.03
2023-04-27T15:38:12.373Z,3.60
2023-04-27T15:40:39.993Z,4.05
2023-04-27T15:43:06.948Z,4.10
2023-04-27T15:45:33.768Z,4.25
2023-04-27T15:48:00.585Z,4.20
2023-04-27T15:50:27.443Z,4.45
2023-04-27T15:52:54.163Z,4.28
2023-04-27T15:55:22.026Z,3.65
2023-04-27T15:57:48.647Z,4.15
2023-04-27T16:00:16.716Z,3.92
2023-04-27T16:02:43.592Z,3.80
2023-04-27T16:05:10.748Z,3.90
2023-04-27T16:07:39.849Z,3.22
2023-04-27T16:10:07.596Z,3.10
2023-04-27T16:12:34.456Z,3.35
2023-04-27T16:15:01.497Z,3.72
2023-04-27T16:17:31.176Z,3.75
2023-04-27T16:19:58.192Z,3.40
2023-04-27T16:22:25.050Z,3.97
2023-04-27T16:24:51.901Z,3.38
2023-04-27T16:27:20.502Z,4.53
2023-04-27T16:29:47.514Z,3.60
2023-04-27T16:32:14.195Z,3.72
2023-04-27T16:34:41.617Z,4.18
2023-04-27T16:37:08.626Z,4.10
2023-04-27T16:39:35.705Z,4.13
2023-04-27T16:42:03.012Z,3.75
2023-04-27T16:44:29.679Z,3.47
2023-04-27T16:46:56.321Z,3.20
2023-04-27T16:49:23.200Z,3.65
2023-04-27T16:51:49.967Z,3.67
2023-04-27T16:54:16.740Z,3.78
2023-04-27T16:56:43.598Z,3.58
2023-04-27T16:59:12.467Z,3.30
2023-04-27T17:01:39.992Z,3.65
2023-04-27T17:04:06.782Z,3.40
2023-04-27T17:06:34.653Z,4.07
2023-04-27T17:09:01.569Z,3.72
2023-04-27T17:11:28.345Z,3.22
2023-04-27T17:13:55.034Z,4.15
2023-04-27T17:16:21.858Z,3.22
2023-04-27T17:18:48.978Z,3.00
2023-04-27T17:21:16.795Z,2.85
2023-04-27T17:23:46.395Z,3.95
2023-04-27T17:28:42.524Z,3.22
2023-04-27T17:31:09.143Z,2.90
2023-04-27T17:33:36.038Z,3.25
2023-04-27T17:36:02.726Z,3.03
2023-04-27T17:38:29.412Z,3.55
2023-04-27T17:40:56.208Z,3.38
2023-04-27T17:43:23.027Z,2.90
2023-04-27T17:45:49.832Z,2.60
2023-04-27T17:48:17.010Z,3.25
2023-04-27T17:50:43.671Z,2.70
2023-04-27T17:53:10.442Z,2.50
2023-04-27T17:55:37.116Z,3.22
2023-04-27T17:58:04.125Z,3.10
2023-04-27T18:00:31.012Z,5.00
2023-04-27T18:02:57.818Z,3.30
2023-04-27T18:05:24.870Z,3.83
2023-04-27T18:07:51.828Z,5.53
2023-04-27T18:10:18.481Z,3.50
2023-04-27T18:12:45.106Z,3.45
2023-04-27T18:15:11.941Z,3.15
2023-04-27T18:17:38.713Z,2.47
2023-04-27T18:20:09.520Z,2.60
2023-04-27T18:22:39.846Z,2.20
2023-04-27T18:25:07.373Z,2.42
2023-04-27T18:27:33.994Z,2.88
2023-04-27T18:30:00.817Z,3.95
2023-04-27T18:32:27.472Z,4.03
2023-04-27T18:34:55.582Z,3.45
2023-04-27T18:37:22.289Z,4.68
2023-04-27T18:39:50.415Z,3.35
2023-04-27T18:42:19.975Z,3.47
2023-04-27T18:44:51.575Z,3.17
2023-04-27T18:47:18.372Z,2.80
2023-04-27T18:49:44.954Z,3.25
2023-04-27T18:52:12.307Z,2.70
2023-04-27T18:54:39.114Z,2.72
2023-04-27T18:57:06.596Z,2.10
2023-04-27T18:59:33.503Z,2.47
2023-04-27T19:02:00.189Z,3.13
2023-04-27T19:04:27.349Z,3.40
2023-04-27T19:06:54.152Z,3.38
2023-04-27T19:09:20.827Z,3.00
2023-04-27T19:11:56.082Z,4.38
2023-04-27T19:14:29.000Z,6.70
2023-04-27T19:16:55.790Z,5.45
2023-04-27T19:19:22.504Z,4.95
2023-04-27T19:21:49.114Z,5.38
2023-04-27T19:24:15.796Z,4.70
2023-04-27T19:26:42.456Z,4.80
2023-04-27T19:29:09.192Z,4.68
2023-04-27T19:31:36.009Z,4.93
2023-04-27T19:34:04.490Z,5.72
2023-04-27T19:36:31.842Z,4.60
2023-04-27T19:38:58.498Z,4.53
2023-04-27T19:41:25.240Z,6.05
2023-04-27T19:43:51.988Z,6.10
2023-04-27T19:46:18.749Z,5.82
2023-04-27T19:48:45.690Z,4.88
2023-04-27T19:51:12.554Z,5.32
2023-04-27T19:53:39.374Z,5.60
2023-04-27T19:56:06.326Z,6.07
2023-04-27T19:58:34.687Z,5.05
2023-04-27T20:01:01.882Z,5.68
2023-04-27T20:03:28.625Z,5.80
2023-04-27T20:05:56.029Z,5.72
2023-04-27T20:08:22.965Z,5.82
2023-04-27T20:10:49.725Z,4.85
2023-04-27T20:13:16.388Z,5.60
2023-04-27T20:15:43.279Z,5.43
2023-04-27T20:18:10.116Z,5.57
2023-04-27T20:20:37.500Z,6.13
2023-04-27T20:23:04.332Z,5.93
2023-04-27T20:25:30.991Z,4.50
2023-04-27T20:27:57.720Z,5.38
2023-04-27T20:30:24.448Z,5.00
2023-04-27T20:32:51.194Z,6.00
2023-04-27T20:35:18.361Z,4.72
2023-04-27T20:37:45.052Z,5.22
2023-04-27T20:40:16.666Z,5.50
2023-04-27T20:42:43.454Z,5.43
2023-04-27T20:45:11.488Z,5.25
2023-04-27T20:47:38.330Z,5.30
2023-04-27T20:50:06.260Z,5.25
2023-04-27T20:52:34.542Z,4.55
2023-04-27T20:55:02.017Z,5.32
2023-04-27T20:57:28.847Z,4.70
2023-04-27T20:59:55.640Z,4.95
2023-04-27T21:02:22.308Z,4.40
2023-04-27T21:04:49.104Z,3.88
2023-04-27T21:07:15.831Z,3.83
2023-04-27T21:09:42.391Z,3.35
2023-04-27T21:12:09.210Z,4.03
2023-04-27T21:14:36.034Z,3.88
2023-04-27T21:17:02.907Z,3.58
2023-04-27T21:19:29.729Z,3.05
2023-04-27T21:21:56.320Z,3.13
2023-04-27T21:24:23.141Z,4.80
2023-04-27T21:26:50.046Z,3.75
2023-04-27T21:29:16.678Z,5.18
2023-04-27T21:31:43.299Z,5.00
2023-04-27T21:34:09.944Z,15.38
2023-04-27T21:36:37.218Z,10.10
2023-04-27T21:39:03.989Z,7.35
2023-04-27T21:41:30.697Z,6.45
2023-04-27T21:43:57.304Z,5.88
2023-04-27T21:46:24.219Z,6.20
2023-04-27T21:48:51.125Z,9.10
2023-04-27T21:51:17.862Z,5.82
2023-04-27T21:53:44.468Z,4.20
2023-04-27T21:56:11.468Z,4.28
2023-04-27T21:58:38.178Z,3.80
2023-04-27T22:01:04.914Z,3.17
2023-04-27T22:03:32.640Z,3.55
2023-04-27T22:05:59.429Z,4.47
2023-04-27T22:08:26.237Z,5.30
2023-04-27T22:10:53.019Z,4.40
2023-04-27T22:13:20.018Z,5.10
2023-04-27T22:15:47.676Z,4.00
2023-04-27T22:18:15.442Z,4.03
2023-04-27T22:20:42.955Z,3.85
2023-04-27T22:23:10.233Z,4.35
2023-04-27T22:25:37.017Z,3.25
2023-04-27T22:28:03.872Z,3.10
2023-04-27T22:30:30.733Z,3.40
2023-04-27T22:32:57.797Z,3.92
2023-04-27T22:35:27.605Z,3.75
2023-04-27T22:37:55.883Z,4.00
2023-04-27T22:40:22.759Z,4.75
2023-04-27T22:42:49.444Z,4.25
2023-04-27T22:45:16.273Z,4.07
2023-04-27T22:47:44.595Z,4.95
2023-04-27T22:50:12.251Z,5.00
2023-04-27T22:52:42.292Z,4.90
2023-04-27T22:55:10.258Z,3.42
2023-04-27T22:57:37.326Z,3.72
2023-04-27T23:00:11.280Z,3.53
2023-04-27T23:02:42.615Z,2.83
2023-04-27T23:05:10.946Z,3.35
2023-04-27T23:07:37.957Z,4.57
2023-04-27T23:10:05.692Z,3.30
2023-04-27T23:12:32.874Z,3.50
2023-04-27T23:14:59.463Z,3.53
2023-04-27T23:17:30.598Z,3.30
2023-04-27T23:20:01.683Z,3.28
2023-04-27T23:22:28.580Z,2.75
2023-04-27T23:24:55.367Z,3.80
2023-04-27T23:27:23.551Z,3.17
2023-04-27T23:29:51.453Z,3.15
2023-04-27T23:32:18.168Z,3.95
2023-04-27T23:34:44.880Z,3.83
2023-04-27T23:37:12.039Z,3.05
2023-04-27T23:39:38.769Z,3.58
2023-04-27T23:42:05.520Z,3.55
2023-04-27T23:44:32.166Z,3.75
2023-04-27T23:46:59.113Z,2.70
2023-04-27T23:49:25.760Z,3.25
2023-04-27T23:51:52.905Z,3.30
2023-04-27T23:54:19.534Z,3.35
2023-04-27T23:56:46.159Z,3.20
2023-04-27T23:59:14.846Z,3.42
